Time;durP1;ratioP1;P1;durP2;ratioP2;P2;SDS_P1;SDS_P2;PMS_P1;PMS_P2;Temp;Humidity;BMP_temperature;BMP_pressure;BME280_temperature;BME280_humidity;BME280_pressure;Samples;Min_cycle;Max_cycle;Signal;HPM_P1;HPM_P2
2022/05/22 00:01:41;;;;;;;5.53;2.90;;;;;;;18.48;51.02;97653.47;5054721;28;20179;-70
2022/05/22 00:04:07;;;;;;;6.53;3.70;;;;;;;18.49;51.34;97652.47;5053987;28;20230;-71
2022/05/22 00:06:33;;;;;;;3.50;3.20;;;;;;;18.53;51.54;97653.69;5051310;28;20422;-71
2022/05/22 00:08:59;;;;;;;5.43;3.00;;;;;;;18.59;50.96;97654.75;5051682;28;20453;-71
2022/05/22 00:11:24;;;;;;;3.53;3.23;;;;;;;18.58;51.13;97661.09;5048421;28;20554;-71
2022/05/22 00:13:50;;;;;;;6.10;3.10;;;;;;;18.51;51.15;97655.75;5051138;28;20175;-72
2022/05/22 00:19:00;;;;;;;4.23;2.70;;;;;;;18.46;51.24;97654.69;5047394;28;20195;-71
2022/05/22 00:21:25;;;;;;;7.47;4.07;;;;;;;18.33;51.14;97653.56;5050454;28;20540;-72
2022/05/22 00:23:51;;;;;;;4.90;3.67;;;;;;;18.20;51.52;97654.25;5038040;28;20601;-72
2022/05/22 00:26:17;;;;;;;4.13;2.67;;;;;;;18.21;51.94;97650.59;5051861;28;20291;-72
2022/05/22 00:28:42;;;;;;;3.23;2.93;;;;;;;18.25;51.46;97657.16;5052315;28;20593;-72
2022/05/22 00:31:08;;;;;;;3.30;2.50;;;;;;;18.17;51.73;97649.31;5054586;28;20175;-73
2022/05/22 00:33:33;;;;;;;7.30;3.03;;;;;;;18.13;51.64;97641.94;5058053;28;20175;-72
2022/05/22 00:35:59;;;;;;;4.40;2.63;;;;;;;18.10;51.84;97645.78;5063860;28;20178;-73
2022/05/22 00:38:24;;;;;;;3.97;2.47;;;;;;;18.13;51.67;97641.94;5050529;28;20203;-71
2022/05/22 00:40:50;;;;;;;4.47;2.53;;;;;;;18.10;51.98;97640.50;5054437;28;20175;-72
2022/05/22 00:43:27;;;;;;;4.23;2.53;;;;;;;18.06;52.01;97641.88;5050473;28;20238;-72
2022/05/22 00:45:52;;;;;;;4.33;3.43;;;;;;;18.04;52.03;97630.63;5050766;28;20201;-71
2022/05/22 00:48:18;;;;;;;4.30;2.87;;;;;;;17.95;52.10;97636.03;5050197;28;20885;-71
2022/05/22 00:50:44;;;;;;;5.07;3.00;;;;;;;17.90;52.10;97638.41;5051034;28;20193;-70
2022/05/22 00:53:09;;;;;;;4.33;3.00;;;;;;;17.88;52.24;97632.50;5050606;28;20282;-71
2022/05/22 00:55:35;;;;;;;3.53;3.13;;;;;;;17.79;52.18;97634.44;5049495;28;20277;-72
2022/05/22 00:58:07;;;;;;;3.43;2.70;;;;;;;17.74;52.57;97628.88;5050122;28;20203;-74
2022/05/22 01:00:35;;;;;;;3.73;2.77;;;;;;;17.78;52.48;97629.31;5033313;28;20175;-71
2022/05/22 01:05:49;;;;;;;4.00;2.87;;;;;;;17.68;52.62;97632.31;5050938;28;20421;-71
2022/05/22 01:08:15;;;;;;;3.70;2.97;;;;;;;17.63;52.71;97634.69;5049795;28;20791;-73
2022/05/22 01:10:44;;;;;;;4.33;2.80;;;;;;;17.61;52.62;97626.94;5033433;28;20240;-71
2022/05/22 01:13:12;;;;;;;5.27;2.97;;;;;;;17.60;52.72;97622.63;5048181;28;20262;-72
2022/05/22 01:15:38;;;;;;;5.17;2.77;;;;;;;17.60;52.51;97619.13;5042582;28;20568;-74
2022/05/22 01:18:03;;;;;;;6.17;3.00;;;;;;;17.50;52.79;97608.88;5049109;28;20521;-71
2022/05/22 01:20:29;;;;;;;3.60;2.93;;;;;;;17.54;52.81;97610.13;5049256;28;20266;-70
2022/05/22 01:22:55;;;;;;;3.80;2.50;;;;;;;17.60;52.30;97611.19;5048858;28;20199;-71
2022/05/22 01:25:20;;;;;;;4.00;2.23;;;;;;;17.57;52.79;97601.00;5049964;28;20187;-74
2022/05/22 01:27:46;;;;;;;3.10;2.47;;;;;;;17.59;52.32;97605.09;5050426;28;20232;-71
2022/05/22 01:30:16;;;;;;;4.70;2.70;;;;;;;17.65;52.52;97612.28;5049254;28;20668;-70
2022/05/22 01:32:44;;;;;;;4.23;2.43;;;;;;;17.72;52.21;97620.28;5060374;28;20236;-71
2022/05/22 01:35:12;;;;;;;6.17;2.17;;;;;;;17.78;51.79;97624.84;5059253;28;20439;-73
2022/05/22 01:37:37;;;;;;;3.47;2.23;;;;;;;17.82;51.33;97622.66;5053591;28;20450;-71
2022/05/22 01:40:03;;;;;;;5.43;2.00;;;;;;;17.80;51.86;97622.00;5055356;28;20481;-70
2022/05/22 01:42:30;;;;;;;6.43;2.97;;;;;;;17.81;51.31;97627.13;5052767;28;20205;-72
2022/05/22 01:44:55;;;;;;;4.57;2.30;;;;;;;17.82;51.58;97630.59;5054113;28;20508;-73
2022/05/22 01:47:21;;;;;;;3.90;2.43;;;;;;;17.79;51.76;97631.81;5062225;28;20520;-73
2022/05/22 01:49:46;;;;;;;3.60;2.40;;;;;;;17.74;51.71;97625.44;5053916;28;20576;-71
2022/05/22 01:52:12;;;;;;;3.80;2.17;;;;;;;17.72;51.68;97619.50;5053384;28;20187;-72
2022/05/22 01:54:37;;;;;;;5.20;2.43;;;;;;;17.66;51.92;97613.91;5054244;28;20191;-71
2022/05/22 01:57:03;;;;;;;6.00;2.33;;;;;;;17.63;52.14;97616.13;5053560;28;20262;-72
2022/05/22 01:59:29;;;;;;;4.53;2.30;;;;;;;17.60;52.20;97621.78;5053844;28;20199;-72
2022/05/22 02:01:54;;;;;;;3.53;2.23;;;;;;;17.66;52.17;97626.38;5060242;28;20941;-72
2022/05/22 02:04:20;;;;;;;3.60;2.27;;;;;;;17.70;52.03;97624.16;5054335;28;20210;-71
2022/05/22 02:09:29;;;;;;;2.90;2.37;;;;;;;17.78;51.86;97616.06;5053634;28;20253;-70
2022/05/22 02:11:55;;;;;;;3.40;2.30;;;;;;;17.63;51.85;97610.81;5053926;28;20425;-73
2022/05/22 02:14:20;;;;;;;5.00;2.33;;;;;;;17.61;52.20;97611.03;5053356;28;20197;-71
2022/05/22 02:16:46;;;;;;;2.23;2.03;;;;;;;17.68;51.94;97607.59;5053416;28;20672;-72
2022/05/22 02:19:11;;;;;;;2.80;2.13;;;;;;;17.64;52.15;97607.16;5052261;28;20208;-73
2022/05/22 02:21:37;;;;;;;5.30;2.30;;;;;;;17.61;51.71;97603.06;5053334;28;20183;-71
2022/05/22 02:24:03;;;;;;;4.60;2.30;;;;;;;17.54;52.09;97596.88;5053309;28;20214;-71
2022/05/22 02:26:28;;;;;;;3.07;2.40;;;;;;;17.46;52.12;97589.03;5060827;28;20179;-73
2022/05/22 02:28:54;;;;;;;2.80;1.90;;;;;;;17.39;52.37;97588.97;5053288;28;20211;-71
2022/05/22 02:31:19;;;;;;;2.70;2.40;;;;;;;17.37;52.52;97576.91;5054441;28;20179;-71
2022/05/22 02:33:45;;;;;;;2.50;2.20;;;;;;;17.37;52.75;97568.97;5058662;28;20203;-71
2022/05/22 02:36:13;;;;;;;5.23;2.47;;;;;;;17.38;52.80;97575.91;5057587;28;20270;-72
2022/05/22 02:38:40;;;;;;;4.23;2.50;;;;;;;17.36;52.75;97578.72;5053033;28;20689;-71
2022/05/22 02:41:15;;;;;;;6.30;2.70;;;;;;;17.38;52.71;97570.63;5059538;28;21115;-73
2022/05/22 02:43:41;;;;;;;4.27;2.50;;;;;;;17.39;52.79;97573.06;5052562;28;20461;-73
2022/05/22 02:46:15;;;;;;;3.77;2.70;;;;;;;17.40;52.56;97577.38;5052524;28;20511;-72
2022/05/22 02:48:41;;;;;;;3.60;2.40;;;;;;;17.19;52.41;97568.38;5052687;28;20207;-72
2022/05/22 02:51:11;;;;;;;6.03;2.33;;;;;;;17.22;52.85;97572.47;5060758;28;20440;-71
2022/05/22 02:53:37;;;;;;;5.00;2.83;;;;;;;17.26;52.97;97568.47;5052654;28;20482;-71
2022/05/22 02:56:14;;;;;;;7.50;2.80;;;;;;;17.28;52.69;97566.41;5052336;28;20615;-71
2022/05/22 02:58:39;;;;;;;3.90;2.40;;;;;;;17.12;52.58;97572.75;5052473;28;20673;-70
2022/05/22 03:01:06;;;;;;;6.00;2.63;;;;;;;17.03;53.51;97568.59;5052366;28;20421;-71
2022/05/22 03:03:32;;;;;;;4.20;2.60;;;;;;;17.07;53.20;97553.13;5058598;28;20210;-72
2022/05/22 03:08:42;;;;;;;5.23;2.73;;;;;;;16.99;53.64;97554.06;5052323;28;20935;-71
2022/05/22 03:11:07;;;;;;;2.60;2.40;;;;;;;16.94;53.63;97551.97;5050367;28;20430;-71
2022/05/22 03:13:33;;;;;;;4.10;2.80;;;;;;;17.02;53.53;97538.63;5052314;28;20681;-72
2022/05/22 03:15:59;;;;;;;2.97;2.50;;;;;;;17.04;53.60;97538.44;5052402;28;20175;-73
2022/05/22 03:18:25;;;;;;;3.33;2.80;;;;;;;16.99;53.71;97541.66;5051641;28;20291;-71
2022/05/22 03:20:50;;;;;;;2.93;2.70;;;;;;;17.00;53.51;97538.00;5050823;28;20186;-70
2022/05/22 03:23:16;;;;;;;6.03;2.97;;;;;;;16.94;53.81;97549.31;5051996;28;20662;-71
2022/05/22 03:25:43;;;;;;;5.90;2.60;;;;;;;16.97;53.70;97541.03;5051953;28;20239;-72
2022/05/22 03:28:09;;;;;;;3.60;2.80;;;;;;;16.74;53.60;97533.16;5044651;28;20495;-71
2022/05/22 03:30:34;;;;;;;5.60;2.80;;;;;;;16.81;53.87;97541.19;5033279;28;20433;-72
2022/05/22 03:33:00;;;;;;;2.93;2.60;;;;;;;16.84;53.83;97536.34;5049346;28;20174;-72
2022/05/22 03:35:25;;;;;;;4.60;3.00;;;;;;;16.84;53.88;97544.28;5065859;28;20541;-71
2022/05/22 03:37:51;;;;;;;3.47;3.00;;;;;;;16.78;53.63;97539.72;5058195;28;20348;-71
2022/05/22 03:40:16;;;;;;;2.97;2.67;;;;;;;16.73;54.29;97527.06;5050928;28;20179;-70
2022/05/22 03:42:42;;;;;;;3.53;3.23;;;;;;;16.81;54.12;97536.72;5059799;28;20286;-72
2022/05/22 03:45:08;;;;;;;3.97;2.80;;;;;;;16.80;54.29;97540.38;5067056;28;20269;-72
2022/05/22 03:47:34;;;;;;;3.40;2.77;;;;;;;16.87;53.84;97538.63;5057872;28;20240;-71
2022/05/22 03:50:04;;;;;;;3.07;2.87;;;;;;;16.87;53.99;97546.56;5067660;28;21006;-73
2022/05/22 03:52:42;;;;;;;3.33;2.90;;;;;;;16.89;53.84;97541.06;5051250;28;20171;-71
2022/05/22 03:55:10;;;;;;;2.80;2.60;;;;;;;16.85;53.83;97534.53;5068637;28;20428;-71
2022/05/22 03:57:35;;;;;;;3.20;2.80;;;;;;;16.80;53.74;97539.53;5072438;28;20420;-74
2022/05/22 04:00:04;;;;;;;3.87;2.67;;;;;;;16.72;54.08;97536.00;5070517;28;20448;-76
2022/05/22 04:02:30;;;;;;;3.40;3.07;;;;;;;16.74;54.05;97527.84;5051590;28;20179;-74
2022/05/22 04:04:55;;;;;;;3.93;2.63;;;;;;;16.66;54.42;97531.41;5065013;28;20432;-71
2022/05/22 04:07:21;;;;;;;3.63;2.40;;;;;;;16.69;54.21;97536.34;5072944;28;20242;-72
2022/05/22 04:09:46;;;;;;;3.37;2.50;;;;;;;16.73;54.16;97527.06;5055582;28;20201;-72
2022/05/22 04:12:13;;;;;;;4.30;2.77;;;;;;;16.76;54.27;97530.34;5066357;28;20220;-72
2022/05/22 04:14:39;;;;;;;2.90;2.70;;;;;;;16.79;54.16;97520.19;5070843;28;20178;-71
2022/05/22 04:17:04;;;;;;;3.73;2.60;;;;;;;16.78;54.23;97512.44;5066478;28;20448;-71
2022/05/22 04:19:31;;;;;;;5.17;2.90;;;;;;;16.79;54.37;97511.44;5054580;28;21012;-70
2022/05/22 04:21:57;;;;;;;3.27;2.97;;;;;;;16.84;54.04;97514.34;5062892;28;20183;-73
2022/05/22 04:27:07;;;;;;;3.40;3.00;;;;;;;16.92;53.69;97511.59;5059797;28;20425;-73
2022/05/22 04:29:34;;;;;;;4.20;3.37;;;;;;;17.00;53.40;97511.53;5059050;28;20944;-71
2022/05/22 04:31:59;;;;;;;3.90;3.43;;;;;;;17.03;53.47;97499.75;5061795;28;20267;-73
2022/05/22 04:34:25;;;;;;;4.90;2.53;;;;;;;17.04;53.95;97498.75;5055615;28;20422;-71
2022/05/22 04:36:51;;;;;;;4.30;3.40;;;;;;;17.08;53.73;97499.19;5063179;28;20229;-71
2022/05/22 04:39:16;;;;;;;3.10;2.83;;;;;;;17.08;53.92;97496.53;5068904;28;20198;-72
2022/05/22 04:41:42;;;;;;;7.30;3.87;;;;;;;17.08;53.92;97493.88;5062192;28;20731;-73
2022/05/22 04:44:07;;;;;;;4.50;3.40;;;;;;;17.15;53.81;97502.72;5047528;28;20294;-72
2022/05/22 04:46:34;;;;;;;4.63;3.43;;;;;;;17.24;53.22;97501.59;5070205;28;20174;-71
2022/05/22 04:48:59;;;;;;;7.50;3.13;;;;;;;17.12;52.70;97500.47;5070642;28;20202;-72
2022/05/22 04:51:25;;;;;;;5.10;3.17;;;;;;;17.16;52.89;97504.34;5062287;28;20433;-73
2022/05/22 04:53:51;;;;;;;4.80;2.80;;;;;;;17.11;53.62;97491.69;5065900;28;20180;-71
2022/05/22 04:56:16;;;;;;;4.63;3.20;;;;;;;17.11;53.39;97485.56;5070221;28;20703;-71
2022/05/22 04:58:42;;;;;;;3.80;2.90;;;;;;;17.01;53.49;97491.97;5067522;28;20209;-72
2022/05/22 05:01:09;;;;;;;3.27;2.80;;;;;;;16.95;53.70;97487.44;5060277;28;20227;-75
2022/05/22 05:03:35;;;;;;;5.23;2.80;;;;;;;17.03;53.35;97491.81;5061197;28;20234;-71
2022/05/22 05:06:02;;;;;;;4.47;3.00;;;;;;;17.03;54.29;97497.09;5070639;28;20464;-75
2022/05/22 05:08:29;;;;;;;7.23;3.90;;;;;;;17.24;54.03;97496.31;5065238;28;20893;-72
2022/05/22 05:10:56;;;;;;;4.77;2.90;;;;;;;17.38;54.01;97489.31;5068585;28;20427;-71
2022/05/22 05:13:23;;;;;;;3.50;2.93;;;;;;;17.48;54.33;97484.50;5071858;28;20436;-71
2022/05/22 05:16:02;;;;;;;3.20;2.80;;;;;;;17.63;54.29;97484.47;5066863;28;20445;-72
2022/05/22 05:18:29;;;;;;;7.57;3.10;;;;;;;17.71;53.92;97485.31;5047915;28;20449;-72
2022/05/22 05:20:55;;;;;;;4.40;3.10;;;;;;;17.80;53.77;97474.41;5069781;28;20500;-71
2022/05/22 05:23:20;;;;;;;3.10;2.90;;;;;;;17.81;53.25;97481.34;5072156;28;20464;-71
2022/05/22 05:25:46;;;;;;;8.87;3.13;;;;;;;17.90;52.97;97481.19;5067077;28;20571;-71
2022/05/22 05:28:11;;;;;;;6.40;2.97;;;;;;;18.03;53.01;97477.84;5052897;28;20206;-72
2022/05/22 05:30:37;;;;;;;3.70;2.83;;;;;;;18.00;52.81;97483.53;5059385;28;20191;-73
2022/05/22 05:33:02;;;;;;;6.03;3.50;;;;;;;18.09;52.20;97477.06;5059096;28;20212;-71
2022/05/22 05:35:28;;;;;;;2.70;2.43;;;;;;;18.21;52.52;97480.81;5063919;28;20203;-71
2022/05/22 05:37:53;;;;;;;3.07;2.77;;;;;;;18.31;52.04;97485.78;5060251;28;20187;-73
2022/05/22 05:40:19;;;;;;;4.97;2.90;;;;;;;18.27;51.86;97485.34;5063194;28;20179;-70
2022/05/22 05:42:45;;;;;;;4.60;2.87;;;;;;;18.39;52.43;97482.16;5074319;28;20206;-72
2022/05/22 05:45:12;;;;;;;6.30;3.03;;;;;;;18.51;52.11;97477.94;5064261;28;20548;-73
2022/05/22 05:47:38;;;;;;;5.23;3.10;;;;;;;18.72;51.92;97469.03;5072745;28;20840;-71
2022/05/22 05:50:05;;;;;;;5.63;2.93;;;;;;;18.88;51.17;97470.53;5038892;28;20448;-70
2022/05/22 05:52:31;;;;;;;5.60;3.20;;;;;;;19.05;51.02;97472.03;5065479;28;20190;-71
2022/05/22 05:54:56;;;;;;;6.40;2.60;;;;;;;19.19;50.87;97474.53;5068539;28;20935;-73
2022/05/22 05:57:22;;;;;;;5.20;2.77;;;;;;;19.36;50.09;97471.50;5073780;28;20224;-71
2022/05/22 05:59:47;;;;;;;6.03;2.30;;;;;;;19.34;49.85;97473.53;5074388;28;20224;-71
2022/05/22 06:02:14;;;;;;;5.77;2.57;;;;;;;19.49;49.69;97466.19;5073629;28;20214;-73
2022/05/22 06:04:40;;;;;;;2.90;2.10;;;;;;;19.67;48.86;97464.75;5073775;28;20230;-72
2022/05/22 06:07:07;;;;;;;4.90;2.57;;;;;;;19.68;47.94;97458.41;5073604;28;20861;-71
2022/05/22 06:09:32;;;;;;;3.00;1.90;;;;;;;19.88;48.01;97462.97;5070633;28;20510;-71
2022/05/22 06:11:58;;;;;;;3.40;2.30;;;;;;;19.84;47.25;97457.22;5053749;28;20429;-71
2022/05/22 06:14:23;;;;;;;3.07;2.20;;;;;;;20.09;47.66;97454.75;5064977;28;20484;-74
2022/05/22 06:16:50;;;;;;;2.40;2.20;;;;;;;20.00;47.00;97448.03;5071107;28;20186;-70
2022/05/22 06:19:53;;;;;;;2.43;2.20;;;;;;;20.30;47.31;97455.50;5070936;28;20210;-71
2022/05/22 06:22:01;;;;;;;4.77;1.90;;;;;;;20.58;47.71;97445.63;5069457;28;20979;-70
2022/05/22 06:24:27;;;;;;;3.07;2.20;;;;;;;20.79;47.15;97441.88;5072878;28;20510;-71
2022/05/22 06:26:52;;;;;;;2.63;1.80;;;;;;;20.97;46.62;97447.31;5062486;28;20605;-70
2022/05/22 06:29:18;;;;;;;2.50;1.70;;;;;;;21.14;46.07;97452.13;5070681;28;20202;-70
2022/05/22 06:31:44;;;;;;;3.40;2.10;;;;;;;21.10;45.12;97453.59;5073121;28;20182;-72
2022/05/22 06:34:09;;;;;;;2.17;1.87;;;;;;;21.30;45.27;97448.13;5072810;28;20265;-71
2022/05/22 06:36:35;;;;;;;5.40;2.00;;;;;;;21.23;43.79;97445.50;5067363;28;20462;-71
2022/05/22 06:41:44;;;;;;;2.40;1.70;;;;;;;21.32;43.74;97452.22;5060128;28;20181;-71
2022/05/22 06:44:10;;;;;;;5.10;1.90;;;;;;;21.56;43.38;97446.31;5070506;28;20544;-72
2022/05/22 06:46:35;;;;;;;3.03;1.77;;;;;;;21.56;42.51;97447.13;5071365;28;20182;-69
2022/05/22 06:49:02;;;;;;;2.43;1.63;;;;;;;21.60;42.36;97448.34;5071111;28;20198;-71
2022/05/22 06:51:28;;;;;;;5.63;1.73;;;;;;;21.86;42.41;97445.69;5069410;28;20179;-70
2022/05/22 06:53:53;;;;;;;2.33;1.80;;;;;;;21.84;41.59;97448.56;5072826;28;20432;-70
2022/05/22 06:56:19;;;;;;;3.70;1.80;;;;;;;21.51;41.21;97446.13;5071937;28;20193;-72
2022/05/22 06:58:44;;;;;;;8.00;2.30;;;;;;;21.68;40.97;97463.28;5066530;28;20217;-71
2022/05/22 07:01:10;;;;;;;1.90;1.50;;;;;;;21.92;41.38;97455.47;5070197;28;20235;-71
2022/05/22 07:03:35;;;;;;;4.23;1.67;;;;;;;22.19;41.20;97453.34;5072690;28;20210;-72
2022/05/22 07:06:01;;;;;;;3.90;1.87;;;;;;;22.41;40.93;97458.31;5062487;28;20178;-72
2022/05/22 07:08:27;;;;;;;2.23;1.70;;;;;;;22.66;40.38;97460.88;5071884;28;20202;-70
2022/05/22 07:13:37;;;;;;;3.77;1.60;;;;;;;22.94;39.92;97450.66;5065696;28;20170;-71
2022/05/22 07:16:04;;;;;;;2.80;1.90;;;;;;;23.13;39.57;97449.59;5071777;28;20444;-71
2022/05/22 07:18:30;;;;;;;1.50;1.40;;;;;;;23.26;39.12;97437.91;5071570;28;20190;-73
2022/05/22 07:20:56;;;;;;;2.57;1.57;;;;;;;23.31;38.12;97439.91;5071495;28;20435;-71
2022/05/22 07:23:22;;;;;;;5.43;1.80;;;;;;;23.46;38.66;97437.59;5071684;28;20209;-71
2022/05/22 07:25:47;;;;;;;3.63;1.50;;;;;;;23.68;38.73;97439.75;5071749;28;20179;-72
2022/05/22 07:28:13;;;;;;;4.50;2.37;;;;;;;23.89;38.88;97440.22;5071009;28;20202;-72
2022/05/22 07:30:39;;;;;;;3.30;1.50;;;;;;;24.11;38.41;97436.97;5062511;28;20187;-71
2022/05/22 07:33:04;;;;;;;7.70;1.60;;;;;;;24.31;38.75;97441.97;5036544;28;20562;-72
2022/05/22 07:35:30;;;;;;;2.57;1.70;;;;;;;24.48;37.99;97437.50;5066871;28;20228;-73
2022/05/22 07:37:56;;;;;;;5.00;1.90;;;;;;;24.28;37.21;97426.34;5071202;28;20194;-72
2022/05/22 07:40:21;;;;;;;4.50;1.60;;;;;;;24.51;37.52;97423.63;5060818;28;20273;-75
2022/05/22 07:42:47;;;;;;;6.20;1.63;;;;;;;24.79;38.41;97426.63;5060800;28;20468;-72
2022/05/22 07:45:15;;;;;;;2.20;1.57;;;;;;;25.00;38.35;97417.91;5071205;28;20186;-72
2022/05/22 07:47:41;;;;;;;3.40;1.60;;;;;;;25.14;36.10;97418.41;5071127;28;20182;-72
2022/05/22 07:50:21;;;;;;;2.10;1.40;;;;;;;25.27;37.02;97421.81;5070958;28;21220;-73
2022/05/22 07:52:50;;;;;;;2.13;1.30;;;;;;;25.37;35.96;97421.19;5068404;28;20448;-71
2022/05/22 07:55:18;;;;;;;3.50;1.90;;;;;;;25.58;36.16;97407.06;5071155;28;20432;-72
2022/05/22 07:57:45;;;;;;;2.10;1.47;;;;;;;25.74;35.75;97410.00;5070950;28;20856;-72
2022/05/22 08:00:14;;;;;;;2.33;1.87;;;;;;;25.86;34.37;97402.66;5069643;28;20503;-72
2022/05/22 08:02:40;;;;;;;2.97;1.70;;;;;;;25.94;34.68;97404.13;5070979;28;22419;-71
2022/05/22 08:05:07;;;;;;;1.57;1.33;;;;;;;26.04;34.91;97392.72;5062766;28;20512;-71
2022/05/22 08:07:33;;;;;;;2.50;1.50;;;;;;;26.18;35.26;97390.50;5070981;28;20182;-71
2022/05/22 08:09:59;;;;;;;2.90;1.40;;;;;;;26.35;34.37;97398.50;5062245;28;20456;-70
2022/05/22 08:12:24;;;;;;;7.63;1.70;;;;;;;26.38;33.98;97398.00;5068337;28;20788;-71
2022/05/22 08:14:50;;;;;;;2.07;1.53;;;;;;;26.37;33.45;97394.53;5071008;28;20186;-72
2022/05/22 08:17:19;;;;;;;1.30;1.10;;;;;;;26.27;33.20;97386.34;5070369;28;20198;-71
2022/05/22 08:19:45;;;;;;;6.20;1.33;;;;;;;26.37;33.84;97382.94;5070812;28;20252;-71
2022/05/22 08:22:11;;;;;;;1.80;1.20;;;;;;;26.55;33.62;97378.31;5062370;28;20465;-72
2022/05/22 08:24:36;;;;;;;3.13;1.50;;;;;;;26.63;33.27;97381.38;5070920;28;20293;-73
2022/05/22 08:27:02;;;;;;;7.80;2.07;;;;;;;26.67;33.10;97381.69;5061783;28;20181;-71
2022/05/22 08:29:27;;;;;;;1.83;1.20;;;;;;;26.18;32.88;97387.81;5070908;28;20202;-71
2022/05/22 08:31:53;;;;;;;2.13;1.40;;;;;;;25.99;33.07;97376.53;5070874;28;20186;-72
2022/05/22 08:34:18;;;;;;;2.23;1.20;;;;;;;26.24;34.20;97369.88;5070415;28;20314;-72
2022/05/22 08:36:45;;;;;;;5.37;1.47;;;;;;;25.97;33.24;97367.91;5053922;28;20673;-71
2022/05/22 08:39:11;;;;;;;4.23;1.33;;;;;;;26.33;32.97;97363.03;5070653;28;20242;-71
2022/05/22 08:41:46;;;;;;;2.80;1.50;;;;;;;26.59;33.88;97366.81;5065836;28;20459;-73
2022/05/22 08:44:13;;;;;;;3.63;1.53;;;;;;;26.68;33.09;97364.50;5061156;28;20651;-71
2022/05/22 08:46:49;;;;;;;1.53;1.40;;;;;;;26.77;32.30;97357.59;5070400;28;20429;-72
2022/05/22 08:49:47;;;;;;;3.30;2.00;;;;;;;26.91;32.72;97351.84;5069245;28;20459;-72
2022/05/22 08:52:27;;;;;;;1.70;1.43;;;;;;;27.19;32.97;97349.94;5059087;28;20441;-71
2022/05/22 08:55:00;;;;;;;2.77;1.37;;;;;;;27.13;31.74;97349.88;5071000;28;20412;-71
2022/05/22 09:00:37;;;;;;;3.33;1.33;;;;;;;27.51;32.14;97341.88;5069195;28;20424;-72
2022/05/22 09:03:10;;;;;;;3.83;1.80;;;;;;;27.25;31.29;97336.25;5068954;28;20486;-72
2022/05/22 09:05:36;;;;;;;1.80;1.40;;;;;;;27.35;31.48;97335.50;5023289;28;20469;-71
2022/05/22 09:08:08;;;;;;;1.73;1.43;;;;;;;27.68;31.76;97332.78;5048755;28;20478;-71
2022/05/22 09:10:57;;;;;;;2.80;1.50;;;;;;;27.94;31.05;97336.44;5063484;28;20436;-71
2022/05/22 09:13:47;;;;;;;3.07;1.40;;;;;;;28.20;30.79;97342.78;5069351;28;20793;-71
2022/05/22 09:16:20;;;;;;;2.57;1.27;;;;;;;28.42;30.79;97346.34;5066214;28;20998;-72
2022/05/22 09:18:57;;;;;;;2.90;1.37;;;;;;;28.60;30.16;97334.28;5070446;28;20536;-71
2022/05/22 09:21:40;;;;;;;2.60;1.30;;;;;;;28.65;30.60;97345.88;5069170;28;20431;-71
2022/05/22 09:24:09;;;;;;;1.83;1.23;;;;;;;28.79;30.33;97327.34;5070268;28;20534;-72
2022/05/22 09:27:03;;;;;;;2.90;1.00;;;;;;;28.68;30.08;97325.66;5070098;28;20576;-73
2022/05/22 09:29:51;;;;;;;3.00;1.30;;;;;;;28.66;29.87;97320.53;5054878;28;20448;-71
2022/05/22 09:32:32;;;;;;;3.70;1.43;;;;;;;28.80;29.71;97315.47;5068633;28;20458;-72
2022/05/22 09:35:17;;;;;;;2.27;1.30;;;;;;;28.96;29.38;97319.00;5066162;28;20421;-71
2022/05/22 09:38:16;;;;;;;4.70;1.40;;;;;;;28.86;28.52;97321.66;5058369;28;20429;-72
2022/05/22 09:40:46;;;;;;;3.33;1.40;;;;;;;28.99;28.76;97319.50;5057540;28;20932;-69
2022/05/22 09:43:33;;;;;;;3.07;1.20;;;;;;;28.60;28.26;97308.16;5059957;28;20464;-71
2022/05/22 09:46:08;;;;;;;1.40;1.20;;;;;;;28.48;28.47;97310.28;5070494;28;20423;-70
2022/05/22 09:48:56;;;;;;;3.13;1.30;;;;;;;28.75;28.36;97299.28;5042903;28;20476;-70
2022/05/22 09:51:42;;;;;;;2.87;1.30;;;;;;;29.06;27.75;97309.28;5048098;28;20429;-70
2022/05/22 09:54:26;;;;;;;1.37;1.10;;;;;;;29.12;27.70;97310.88;5050449;28;21086;-71
2022/05/22 09:57:05;;;;;;;2.70;1.30;;;;;;;28.80;27.91;97301.19;5052594;28;20420;-70
2022/05/22 09:59:49;;;;;;;2.50;1.30;;;;;;;29.17;29.21;97300.09;5071012;28;20818;-69
2022/05/22 10:02:27;;;;;;;4.30;1.30;;;;;;;29.47;29.12;97295.78;5069222;28;20439;-71
2022/05/22 10:05:20;;;;;;;1.90;1.20;;;;;;;29.65;27.47;97293.56;5060296;28;20802;-69
2022/05/22 10:07:51;;;;;;;2.33;1.30;;;;;;;29.67;28.81;97294.09;5062666;28;20422;-68
2022/05/22 10:10:24;;;;;;;2.70;1.80;;;;;;;29.50;27.76;97286.31;5065105;28;20437;-69
2022/05/22 10:12:55;;;;;;;3.67;1.40;;;;;;;29.37;28.65;97284.97;5055287;28;20458;-69
2022/05/22 10:15:34;;;;;;;5.63;2.00;;;;;;;29.36;28.26;97288.78;5044500;28;20486;-69
2022/05/22 10:18:25;;;;;;;2.50;1.50;;;;;;;29.41;28.45;97288.75;5054057;28;20486;-70
2022/05/22 10:21:17;;;;;;;1.60;1.20;;;;;;;29.45;27.50;97287.16;5060689;28;20579;-69
2022/05/22 10:23:55;;;;;;;1.67;1.57;;;;;;;29.53;27.23;97283.09;5054672;28;20469;-70
2022/05/22 10:26:45;;;;;;;5.77;1.67;;;;;;;29.82;28.04;97287.84;5072495;28;20838;-72
2022/05/22 10:29:16;;;;;;;3.20;1.43;;;;;;;30.10;26.90;97286.41;5072043;28;20448;-70
2022/05/22 10:31:59;;;;;;;1.80;1.40;;;;;;;30.35;26.51;97276.56;5062801;28;20430;-70
2022/05/22 10:34:54;;;;;;;5.90;1.80;;;;;;;30.40;26.67;97276.50;5044337;28;20485;-71
2022/05/22 10:38:01;;;;;;;2.70;1.40;;;;;;;30.38;26.74;97264.38;5047419;28;20567;-71
2022/05/22 10:42:44;;;;;;;3.27;1.50;;;;;;;30.52;26.50;97259.13;5047608;28;20921;-69
2022/05/22 10:43:13;;;;;;;2.53;1.37;;;;;;;30.63;25.23;97256.13;5040805;28;20516;-70
2022/05/22 10:45:38;;;;;;;3.47;1.13;;;;;;;30.19;24.99;97257.72;5040652;28;20422;-70
2022/05/22 10:48:23;;;;;;;2.60;1.20;;;;;;;30.22;25.62;97250.94;5034858;28;20655;-69
2022/05/22 10:50:54;;;;;;;5.20;1.77;;;;;;;30.53;26.29;97239.13;5046687;28;20222;-69
2022/05/22 10:53:29;;;;;;;2.93;1.10;;;;;;;30.63;25.34;97233.66;5043969;28;20429;-70
2022/05/22 10:56:01;;;;;;;1.50;1.13;;;;;;;30.85;26.37;97227.00;5047587;28;20501;-70
2022/05/22 10:58:30;;;;;;;2.53;1.40;;;;;;;31.01;25.63;97222.25;5041953;28;20450;-69
2022/05/22 11:00:59;;;;;;;1.93;1.23;;;;;;;31.10;25.32;97226.78;5058783;28;20466;-72
2022/05/22 11:03:31;;;;;;;4.93;1.50;;;;;;;31.19;25.34;97226.97;5055012;28;20963;-70
2022/05/22 11:05:57;;;;;;;1.30;1.20;;;;;;;31.34;25.06;97223.31;5072622;28;20470;-70
2022/05/22 11:08:29;;;;;;;1.60;1.50;;;;;;;31.38;24.57;97227.03;5072412;28;20449;-70
2022/05/22 11:10:55;;;;;;;6.10;1.40;;;;;;;31.48;24.37;97214.50;5059179;28;20429;-70
2022/05/22 11:13:24;;;;;;;1.40;1.30;;;;;;;31.35;24.72;97219.53;5057656;28;20915;-69
2022/05/22 11:15:50;;;;;;;1.77;1.20;;;;;;;31.25;24.00;97211.50;5037396;28;20618;-70
2022/05/22 11:18:24;;;;;;;3.57;1.00;;;;;;;31.35;24.13;97224.09;5046810;28;21019;-71
2022/05/22 11:20:56;;;;;;;6.73;1.30;;;;;;;31.19;24.46;97215.34;5036864;28;20206;-71
2022/05/22 11:23:44;;;;;;;1.30;1.20;;;;;;;31.22;25.02;97207.47;5039499;28;20613;-70
2022/05/22 11:26:34;;;;;;;2.20;1.20;;;;;;;31.18;24.40;97208.31;5038908;28;20442;-72
2022/05/22 11:29:16;;;;;;;1.73;1.20;;;;;;;31.13;25.25;97198.38;5034676;28;20449;-70
2022/05/22 11:32:28;;;;;;;1.70;1.30;;;;;;;31.13;24.58;97197.56;5040093;28;20421;-70
2022/05/22 11:35:15;;;;;;;5.13;1.27;;;;;;;31.15;24.55;97192.66;5043917;28;20437;-70
2022/05/22 11:38:05;;;;;;;5.00;1.30;;;;;;;31.08;24.29;97193.78;5059285;28;20436;-70
2022/05/22 11:40:46;;;;;;;2.33;1.40;;;;;;;31.08;24.54;97196.50;5047244;28;20474;-72
2022/05/22 11:43:32;;;;;;;4.13;1.70;;;;;;;31.22;24.96;97199.34;5041750;28;20545;-72
2022/05/22 11:46:05;;;;;;;2.90;1.83;;;;;;;31.34;25.09;97201.66;5042279;28;20414;-69
2022/05/22 11:48:55;;;;;;;2.20;1.60;;;;;;;31.61;24.90;97202.97;5057700;28;20472;-70
2022/05/22 11:51:36;;;;;;;4.93;1.67;;;;;;;31.80;23.45;97199.50;5053296;28;20437;-70
2022/05/22 11:54:46;;;;;;;2.03;1.40;;;;;;;31.71;24.46;97188.50;5059595;28;20430;-70
2022/05/22 11:57:25;;;;;;;3.33;1.43;;;;;;;31.80;24.49;97183.25;5070331;28;20440;-70
2022/05/22 12:00:12;;;;;;;3.07;1.73;;;;;;;31.68;24.17;97181.75;5063994;28;20450;-70
2022/05/22 12:02:43;;;;;;;2.00;1.40;;;;;;;31.73;24.65;97177.41;5056609;28;20995;-69
2022/05/22 12:05:39;;;;;;;3.00;1.60;;;;;;;31.69;24.46;97177.97;5070830;28;20428;-69
2022/05/22 12:08:38;;;;;;;2.80;1.30;;;;;;;31.84;24.28;97176.16;5066840;28;20417;-70
2022/05/22 12:11:36;;;;;;;2.67;1.37;;;;;;;31.82;25.19;97175.66;5054001;28;20541;-70